createdAt,value
2022-10-23T00:02:55.522Z,24.57
2022-10-23T00:05:58.649Z,24.05
2022-10-23T00:09:01.881Z,24.09
2022-10-23T00:12:05.239Z,23.90
2022-10-23T00:15:08.722Z,23.98
2022-10-23T00:18:11.769Z,23.90
2022-10-23T00:21:15.824Z,23.88
2022-10-23T00:24:19.078Z,23.97
2022-10-23T00:27:22.126Z,23.98
2022-10-23T00:30:25.424Z,23.76
2022-10-23T00:33:28.461Z,23.83
2022-10-23T00:36:31.523Z,23.63
2022-10-23T00:39:34.614Z,23.98
2022-10-23T00:42:37.649Z,23.71
2022-10-23T00:45:40.712Z,23.78
2022-10-23T00:48:43.920Z,23.52
2022-10-23T00:51:53.640Z,23.57
2022-10-23T00:54:58.575Z,23.43
2022-10-23T00:58:01.569Z,23.58
2022-10-23T01:01:17.689Z,23.77
2022-10-23T01:04:20.910Z,23.67
2022-10-23T01:07:30.814Z,23.40
2022-10-23T01:10:47.227Z,23.19
2022-10-23T01:14:25.680Z,23.07
2022-10-23T01:17:39.575Z,22.79
2022-10-23T01:20:46.450Z,22.91
2022-10-23T01:24:07.986Z,22.85
2022-10-23T01:27:27.773Z,22.84
2022-10-23T01:30:31.490Z,22.70
2022-10-23T01:33:42.368Z,22.88
2022-10-23T01:36:48.408Z,22.50
2022-10-23T01:39:54.706Z,22.48
2022-10-23T01:43:08.316Z,22.35
2022-10-23T01:46:14.649Z,22.32
2022-10-23T01:49:18.630Z,22.34
2022-10-23T01:52:22.209Z,22.24
2022-10-23T01:55:25.706Z,22.28
2022-10-23T01:58:30.647Z,22.22
2022-10-23T02:01:34.306Z,22.35
2022-10-23T02:04:52.068Z,22.13
2022-10-23T02:07:55.408Z,22.14
2022-10-23T02:11:21.346Z,22.18
2022-10-23T02:15:13.485Z,21.99
2022-10-23T02:18:54.850Z,22.01
2022-10-23T02:22:10.205Z,21.88
2022-10-23T02:25:20.343Z,22.08
2022-10-23T02:28:31.165Z,22.12
2022-10-23T02:31:38.681Z,22.11
2022-10-23T02:34:41.857Z,21.95
2022-10-23T02:37:45.230Z,22.16
2022-10-23T02:40:49.809Z,22.08
2022-10-23T02:44:04.861Z,21.77
2022-10-23T02:47:32.575Z,21.38
2022-10-23T02:50:52.892Z,21.85
2022-10-23T02:54:01.409Z,21.43
2022-10-23T02:57:10.933Z,21.46
2022-10-23T03:00:19.309Z,21.46
2022-10-23T03:03:34.531Z,21.58
2022-10-23T03:06:37.849Z,21.56
2022-10-23T03:09:40.979Z,21.23
2022-10-23T03:12:44.633Z,21.31
2022-10-23T03:15:48.904Z,21.70
2022-10-23T03:18:52.204Z,21.74
2022-10-23T03:21:55.238Z,22.05
2022-10-23T03:24:58.303Z,22.02
2022-10-23T03:28:01.486Z,21.66
2022-10-23T03:31:04.787Z,21.53
2022-10-23T03:34:08.235Z,21.54
2022-10-23T03:37:11.614Z,21.67
2022-10-23T03:40:14.847Z,21.04
2022-10-23T03:43:17.968Z,21.27
2022-10-23T03:46:21.035Z,21.52
2022-10-23T03:49:24.185Z,21.15
2022-10-23T03:52:27.431Z,21.15
2022-10-23T03:55:31.595Z,21.10
2022-10-23T03:58:35.083Z,20.98
2022-10-23T04:01:38.251Z,20.80
2022-10-23T04:04:41.516Z,20.51
2022-10-23T04:07:44.522Z,20.42
2022-10-23T04:10:47.695Z,20.68
2022-10-23T04:13:50.707Z,20.72
2022-10-23T04:16:53.726Z,21.03
2022-10-23T04:19:57.136Z,21.21
2022-10-23T04:23:00.172Z,20.86
2022-10-23T04:26:03.371Z,20.86
2022-10-23T04:29:07.535Z,20.70
2022-10-23T04:32:10.649Z,21.05
2022-10-23T04:35:13.624Z,20.91
2022-10-23T04:38:16.669Z,20.98
2022-10-23T04:41:22.795Z,20.77
2022-10-23T04:44:25.810Z,20.88
2022-10-23T04:47:29.621Z,20.78
2022-10-23T04:50:32.677Z,20.76
2022-10-23T04:53:35.888Z,20.76
2022-10-23T04:56:38.914Z,20.99
2022-10-23T04:59:43.996Z,20.68
2022-10-23T05:02:47.001Z,20.68
2022-10-23T05:05:50.642Z,20.86
2022-10-23T05:08:53.706Z,20.79
2022-10-23T05:11:57.261Z,20.93
2022-10-23T05:15:00.545Z,21.14
2022-10-23T05:18:12.496Z,21.07
2022-10-23T05:21:23.861Z,20.94
2022-10-23T05:24:27.404Z,20.76
2022-10-23T05:27:30.428Z,20.51
2022-10-23T05:30:34.077Z,20.52
2022-10-23T05:33:37.291Z,20.60
2022-10-23T05:36:40.391Z,20.58
2022-10-23T05:39:43.662Z,20.62
2022-10-23T05:42:49.271Z,20.61
2022-10-23T05:45:52.310Z,20.36
2022-10-23T05:48:55.563Z,20.16
2022-10-23T05:52:00.661Z,20.35
2022-10-23T05:55:03.994Z,20.37
2022-10-23T05:58:07.068Z,20.50
2022-10-23T06:01:12.166Z,20.29
2022-10-23T06:04:15.278Z,20.05
2022-10-23T06:07:18.473Z,20.33
2022-10-23T06:10:21.819Z,20.35
2022-10-23T06:13:24.863Z,20.42
2022-10-23T06:16:28.051Z,20.08
2022-10-23T06:19:31.204Z,20.04
2022-10-23T06:22:34.563Z,20.06
2022-10-23T06:25:37.696Z,19.96
2022-10-23T06:28:41.109Z,20.24
2022-10-23T06:31:44.146Z,20.17
2022-10-23T06:34:47.242Z,20.16
2022-10-23T06:37:50.266Z,20.22
2022-10-23T06:40:57.369Z,20.10
2022-10-23T06:44:00.436Z,20.26
2022-10-23T06:47:03.522Z,19.92
2022-10-23T06:50:09.570Z,19.97
2022-10-23T06:53:14.904Z,19.87
2022-10-23T06:56:17.970Z,19.95
2022-10-23T06:59:21.001Z,19.89
2022-10-23T07:02:24.080Z,19.94
2022-10-23T07:05:27.173Z,19.88
2022-10-23T07:08:30.577Z,19.62
2022-10-23T07:11:35.118Z,19.74
2022-10-23T07:14:38.253Z,19.77
2022-10-23T07:17:42.382Z,19.77
2022-10-23T07:20:45.397Z,19.71
2022-10-23T07:23:48.446Z,19.63
2022-10-23T07:29:59.332Z,19.53
2022-10-23T07:33:02.812Z,19.26
2022-10-23T07:36:08.305Z,19.52
2022-10-23T07:39:11.356Z,19.45
2022-10-23T07:42:14.502Z,19.50
2022-10-23T07:45:17.669Z,19.62
2022-10-23T07:48:21.221Z,19.63
2022-10-23T07:51:25.344Z,19.73
2022-10-23T07:54:28.555Z,19.68
2022-10-23T07:57:31.626Z,19.59
2022-10-23T08:00:34.724Z,19.45
2022-10-23T08:03:37.824Z,19.33
2022-10-23T08:06:40.854Z,19.37
2022-10-23T08:09:43.902Z,19.52
2022-10-23T08:12:46.947Z,19.71
2022-10-23T08:15:51.472Z,19.59
2022-10-23T08:18:54.576Z,19.55
2022-10-23T08:21:57.749Z,19.85
2022-10-23T08:25:00.861Z,19.73
2022-10-23T08:28:06.225Z,19.75
2022-10-23T08:31:12.113Z,19.50
2022-10-23T08:34:15.392Z,19.37
2022-10-23T08:37:18.416Z,19.26
2022-10-23T08:40:24.641Z,19.38
2022-10-23T08:43:48.594Z,19.29
2022-10-23T08:47:00.285Z,19.58
2022-10-23T08:50:11.522Z,19.39
2022-10-23T08:53:30.606Z,19.48
2022-10-23T08:56:41.617Z,19.31
2022-10-23T09:00:09.266Z,19.00
2022-10-23T09:03:13.321Z,19.30
2022-10-23T09:06:35.980Z,19.35
2022-10-23T09:09:41.718Z,19.42
2022-10-23T09:12:44.863Z,19.36
2022-10-23T09:15:50.442Z,19.18
2022-10-23T09:18:54.334Z,19.28
2022-10-23T09:21:58.143Z,19.37
2022-10-23T09:25:01.250Z,19.43
2022-10-23T09:28:05.866Z,19.52
2022-10-23T09:31:13.529Z,19.26
2022-10-23T09:34:28.996Z,19.27
2022-10-23T09:37:33.794Z,19.24
2022-10-23T09:40:44.139Z,19.36
2022-10-23T09:43:47.689Z,19.18
2022-10-23T09:46:55.960Z,19.10
2022-10-23T09:49:59.120Z,19.27
2022-10-23T09:53:02.207Z,19.34
2022-10-23T09:56:08.717Z,19.46
2022-10-23T09:59:14.794Z,19.47
2022-10-23T10:02:37.138Z,19.27
2022-10-23T10:05:42.566Z,19.26
2022-10-23T10:08:51.133Z,18.96
2022-10-23T10:11:55.049Z,19.07
2022-10-23T10:15:19.978Z,19.46
2022-10-23T10:18:48.044Z,19.31
2022-10-23T10:22:14.626Z,18.99
2022-10-23T10:25:33.413Z,19.17
2022-10-23T10:29:04.897Z,19.32
2022-10-23T10:32:20.033Z,19.21
2022-10-23T10:35:24.790Z,19.27
2022-10-23T10:38:46.229Z,19.41
2022-10-23T10:41:52.361Z,19.49
2022-10-23T10:45:20.213Z,19.36
2022-10-23T10:48:52.192Z,19.52
2022-10-23T10:52:16.956Z,19.26
2022-10-23T10:55:29.203Z,19.04
2022-10-23T10:58:38.253Z,19.27
2022-10-23T11:01:56.340Z,19.15
2022-10-23T11:05:16.317Z,19.23
2022-10-23T11:08:21.760Z,19.28
2022-10-23T11:11:30.381Z,19.15
2022-10-23T11:14:35.330Z,19.20
2022-10-23T11:17:55.890Z,19.16
2022-10-23T11:21:17.815Z,18.99
2022-10-23T11:24:43.144Z,18.84
2022-10-23T11:28:09.962Z,19.00
2022-10-23T11:31:31.837Z,18.94
2022-10-23T11:34:44.521Z,18.73
2022-10-23T11:38:20.846Z,18.76
2022-10-23T11:41:28.709Z,18.74
2022-10-23T11:44:41.012Z,18.82
2022-10-23T11:47:44.185Z,18.88
2022-10-23T11:50:47.150Z,18.99
2022-10-23T11:53:50.409Z,18.82
2022-10-23T11:57:10.637Z,18.97
2022-10-23T12:00:24.358Z,19.10
2022-10-23T12:03:31.732Z,19.03
2022-10-23T12:06:50.621Z,18.99
2022-10-23T12:10:00.157Z,19.02
2022-10-23T12:13:28.574Z,18.74
2022-10-23T12:16:37.787Z,18.83
2022-10-23T12:19:54.328Z,18.70
2022-10-23T12:23:21.559Z,18.48
2022-10-23T12:26:38.917Z,18.73
2022-10-23T12:29:54.808Z,18.96
2022-10-23T12:33:29.889Z,19.22
2022-10-23T12:37:03.537Z,18.86
2022-10-23T12:40:11.254Z,18.77
2022-10-23T12:43:32.206Z,18.90
2022-10-23T12:46:41.921Z,19.21
2022-10-23T12:49:50.324Z,19.19
2022-10-23T12:53:07.297Z,19.13
2022-10-23T12:56:13.797Z,19.24
2022-10-23T12:59:27.102Z,19.26
2022-10-23T13:02:32.352Z,19.17
2022-10-23T13:05:35.669Z,19.37
2022-10-23T13:08:45.342Z,19.11
2022-10-23T13:11:50.878Z,19.05
2022-10-23T13:15:09.171Z,19.09
2022-10-23T13:18:15.888Z,19.06
2022-10-23T13:21:27.366Z,19.33
2022-10-23T13:24:30.916Z,19.64
2022-10-23T13:27:35.319Z,19.77
2022-10-23T13:30:43.726Z,19.79
2022-10-23T13:33:48.610Z,19.66
2022-10-23T13:37:21.136Z,19.72
2022-10-23T13:40:28.804Z,19.74
2022-10-23T13:43:32.689Z,20.01
2022-10-23T13:46:35.692Z,20.09
2022-10-23T13:49:38.680Z,20.23
2022-10-23T13:52:41.940Z,20.48
2022-10-23T13:55:53.649Z,20.43
2022-10-23T13:58:59.428Z,20.66
2022-10-23T14:02:02.548Z,20.56
2022-10-23T14:05:06.063Z,20.90
2022-10-23T14:08:09.285Z,21.16
2022-10-23T14:11:16.046Z,21.25
2022-10-23T14:14:19.237Z,20.88
2022-10-23T14:17:22.452Z,21.27
2022-10-23T14:20:27.117Z,21.47
2022-10-23T14:23:30.934Z,21.50
2022-10-23T14:26:34.031Z,21.77
2022-10-23T14:29:37.208Z,21.78
2022-10-23T14:32:40.366Z,21.83
2022-10-23T14:35:43.451Z,22.10
2022-10-23T14:38:46.483Z,21.91
2022-10-23T14:41:49.627Z,21.84
2022-10-23T14:44:52.934Z,21.86
2022-10-23T14:47:56.229Z,22.27
2022-10-23T14:50:59.477Z,21.99
2022-10-23T14:54:07.705Z,22.22
2022-10-23T15:00:14.498Z,22.77
2022-10-23T15:03:17.562Z,22.88
2022-10-23T15:06:22.712Z,22.56
2022-10-23T15:09:25.821Z,22.68
2022-10-23T15:12:28.867Z,22.96
2022-10-23T15:15:31.958Z,22.92
2022-10-23T15:18:35.547Z,23.07
2022-10-23T15:21:38.596Z,23.04
2022-10-23T15:24:41.647Z,23.31
2022-10-23T15:27:45.088Z,23.83
2022-10-23T15:30:48.445Z,23.89
2022-10-23T15:33:51.488Z,24.10
2022-10-23T15:36:55.651Z,24.47
2022-10-23T15:40:02.342Z,24.62
2022-10-23T15:43:05.763Z,24.62
2022-10-23T15:46:08.816Z,24.81
2022-10-23T15:49:12.294Z,24.35
2022-10-23T15:52:15.352Z,24.79
2022-10-23T15:55:18.429Z,24.82
2022-10-23T15:58:21.422Z,25.13
2022-10-23T16:01:24.537Z,25.04
2022-10-23T16:04:27.805Z,25.21
2022-10-23T16:07:33.876Z,25.29
2022-10-23T16:10:41.955Z,25.58
2022-10-23T16:13:45.333Z,26.01
2022-10-23T16:16:48.397Z,26.48
2022-10-23T16:19:51.517Z,27.01
2022-10-23T16:22:54.747Z,27.07
2022-10-23T16:25:57.829Z,27.01
2022-10-23T16:29:03.303Z,26.44
2022-10-23T16:32:06.532Z,25.97
2022-10-23T16:35:13.043Z,26.62
2022-10-23T16:38:16.323Z,27.19
2022-10-23T16:41:19.610Z,26.92
2022-10-23T16:44:22.646Z,27.30
2022-10-23T16:47:25.735Z,27.58
2022-10-23T16:50:28.857Z,27.70
2022-10-23T16:53:32.283Z,27.93
2022-10-23T16:56:36.277Z,27.70
2022-10-23T16:59:39.351Z,27.58
2022-10-23T17:02:42.767Z,28.11
2022-10-23T17:05:46.138Z,28.37
2022-10-23T17:08:49.425Z,28.25
2022-10-23T17:11:52.456Z,28.27
2022-10-23T17:14:55.495Z,27.25
2022-10-23T17:17:58.571Z,27.90
2022-10-23T17:21:01.850Z,27.68
2022-10-23T17:24:06.473Z,26.99
2022-10-23T17:27:09.699Z,26.79
2022-10-23T17:30:13.593Z,27.58
2022-10-23T17:33:17.195Z,28.48
2022-10-23T17:36:22.267Z,27.31
2022-10-23T17:39:27.987Z,27.58
2022-10-23T17:42:38.289Z,27.52
2022-10-23T17:45:44.459Z,27.48
2022-10-23T17:48:47.663Z,27.34
2022-10-23T17:51:57.763Z,28.21
2022-10-23T17:55:00.873Z,28.29
2022-10-23T17:58:03.893Z,28.03
2022-10-23T18:01:10.852Z,27.57
2022-10-23T18:04:14.662Z,27.85
2022-10-23T18:07:17.872Z,27.75
2022-10-23T18:10:20.945Z,28.02
2022-10-23T18:13:24.087Z,28.05
2022-10-23T18:16:27.466Z,27.40
2022-10-23T18:19:30.648Z,28.22
2022-10-23T18:22:33.952Z,27.74
2022-10-23T18:25:37.286Z,27.37
2022-10-23T18:28:40.296Z,27.69
2022-10-23T18:31:44.328Z,27.28
2022-10-23T18:34:47.386Z,27.77
2022-10-23T18:37:50.424Z,27.87
2022-10-23T18:40:57.118Z,28.05
2022-10-23T18:44:00.471Z,28.48
2022-10-23T18:47:04.381Z,28.62
2022-10-23T18:50:08.068Z,28.35
2022-10-23T18:53:11.088Z,28.45
2022-10-23T18:56:20.733Z,28.06
2022-10-23T18:59:25.224Z,28.26
2022-10-23T19:02:28.602Z,28.17
2022-10-23T19:05:31.730Z,28.23
2022-10-23T19:08:37.743Z,28.76
2022-10-23T19:11:43.756Z,28.58
2022-10-23T19:14:48.915Z,28.71
2022-10-23T19:17:57.156Z,29.09
2022-10-23T19:21:00.525Z,28.77
2022-10-23T19:24:08.375Z,28.81
2022-10-23T19:27:11.939Z,29.16
2022-10-23T19:30:19.369Z,29.27
2022-10-23T19:33:25.362Z,29.12
2022-10-23T19:36:28.328Z,28.61
2022-10-23T19:39:31.393Z,28.74
2022-10-23T19:42:42.225Z,28.93
2022-10-23T19:45:45.433Z,27.91
2022-10-23T19:48:48.444Z,28.02
2022-10-23T19:51:51.746Z,28.97
2022-10-23T19:54:55.054Z,29.13
2022-10-23T19:57:58.150Z,28.97
2022-10-23T20:01:15.165Z,28.89
2022-10-23T20:04:19.571Z,28.31
2022-10-23T20:07:22.589Z,29.40
2022-10-23T20:10:26.155Z,29.38
2022-10-23T20:13:29.331Z,28.45
2022-10-23T20:16:35.308Z,28.43
2022-10-23T20:19:38.446Z,28.77
2022-10-23T20:22:45.778Z,29.40
2022-10-23T20:25:49.077Z,29.10
2022-10-23T20:28:54.681Z,28.33
2022-10-23T20:31:57.766Z,28.35
2022-10-23T20:35:03.398Z,28.23
2022-10-23T20:38:06.410Z,28.19
2022-10-23T20:41:09.499Z,28.41
2022-10-23T20:44:14.713Z,28.07
2022-10-23T20:47:17.907Z,28.39
2022-10-23T20:50:21.005Z,28.66
2022-10-23T20:53:24.085Z,28.90
2022-10-23T20:56:30.158Z,28.42
2022-10-23T20:59:35.735Z,28.43
2022-10-23T21:02:39.332Z,28.64
2022-10-23T21:05:42.470Z,28.44
2022-10-23T21:08:45.599Z,28.87
2022-10-23T21:11:50.988Z,28.22
2022-10-23T21:14:54.359Z,28.02
2022-10-23T21:18:03.991Z,27.83
2022-10-23T21:21:20.091Z,27.72
2022-10-23T21:24:23.260Z,27.96
2022-10-23T21:27:26.286Z,28.46
2022-10-23T21:30:29.330Z,28.05
2022-10-23T21:33:32.745Z,28.53
2022-10-23T21:36:53.984Z,28.85
2022-10-23T21:39:59.048Z,28.70
2022-10-23T21:43:02.047Z,28.53
2022-10-23T21:46:16.743Z,28.79
2022-10-23T21:49:19.829Z,28.95
2022-10-23T21:52:22.835Z,29.21
2022-10-23T21:55:30.015Z,29.74
2022-10-23T21:58:33.252Z,28.61
2022-10-23T22:01:36.470Z,28.33
2022-10-23T22:04:40.285Z,28.52
2022-10-23T22:07:47.560Z,28.58
2022-10-23T22:10:50.555Z,28.30
2022-10-23T22:13:53.758Z,27.92
2022-10-23T22:16:56.750Z,27.74
2022-10-23T22:19:59.830Z,27.66
2022-10-23T22:23:02.848Z,27.65
2022-10-23T22:26:30.859Z,27.48
2022-10-23T22:29:33.889Z,27.23
2022-10-23T22:32:36.932Z,27.29
2022-10-23T22:35:39.962Z,26.95
2022-10-23T22:38:43.109Z,27.10
2022-10-23T22:41:48.264Z,26.80
2022-10-23T22:44:51.295Z,26.84
2022-10-23T22:47:54.296Z,27.24
2022-10-23T22:50:57.573Z,26.86
2022-10-23T22:54:01.006Z,26.56
2022-10-23T22:57:04.151Z,26.58
2022-10-23T23:00:08.081Z,26.56
2022-10-23T23:03:12.205Z,26.36
2022-10-23T23:06:15.525Z,26.24
2022-10-23T23:09:18.764Z,26.31
2022-10-23T23:12:21.811Z,26.06
2022-10-23T23:15:26.938Z,25.89
2022-10-23T23:18:30.140Z,26.02
2022-10-23T23:21:33.443Z,26.04
2022-10-23T23:24:37.393Z,25.92
2022-10-23T23:27:40.458Z,25.86
2022-10-23T23:33:49.238Z,25.82
2022-10-23T23:36:52.274Z,25.82
2022-10-23T23:39:55.487Z,25.77
2022-10-23T23:42:58.549Z,25.75
2022-10-23T23:46:01.676Z,25.58
2022-10-23T23:49:04.670Z,25.65
2022-10-23T23:52:07.755Z,25.38
2022-10-23T23:55:10.989Z,25.29
2022-10-23T23:58:14.223Z,25.25
